Time;durP1;ratioP1;P1;durP2;ratioP2;P2;SDS_P1;SDS_P2;PMS_P1;PMS_P2;Temp;Humidity;BMP_temperature;BMP_pressure;BME280_temperature;BME280_humidity;BME280_pressure;Samples;Min_cycle;Max_cycle;Signal;HPM_P1;HPM_P2
2024/02/26 00:02:10;;;;;;;14.93;14.00;;;4.10;99.90;;;;;;4947668;28;20063;-73
2024/02/26 00:04:37;;;;;;;14.82;14.02;;;4.00;99.90;;;;;;4947680;28;20047;-73
2024/02/26 00:07:03;;;;;;;15.25;14.27;;;4.10;99.90;;;;;;4943219;28;20054;-73
2024/02/26 00:09:30;;;;;;;15.13;14.32;;;4.10;99.90;;;;;;4942598;28;20122;-73
2024/02/26 00:11:59;;;;;;;15.18;14.40;;;4.10;99.90;;;;;;4941550;28;20302;-72
2024/02/26 00:14:26;;;;;;;15.90;14.93;;;4.10;99.90;;;;;;4959503;28;20051;-73
2024/02/26 00:16:53;;;;;;;15.75;14.75;;;4.20;99.90;;;;;;4957585;28;20054;-74
2024/02/26 00:19:20;;;;;;;15.60;14.70;;;4.10;99.90;;;;;;4945614;28;20125;-73
2024/02/26 00:21:47;;;;;;;14.82;14.07;;;4.20;99.90;;;;;;4962582;28;20077;-73
2024/02/26 00:24:14;;;;;;;15.27;14.38;;;4.20;99.90;;;;;;4957958;28;20101;-73
2024/02/26 00:26:41;;;;;;;15.30;14.50;;;4.20;99.90;;;;;;4965016;28;20042;-72
2024/02/26 00:29:08;;;;;;;14.93;14.18;;;4.20;99.90;;;;;;4960385;28;20050;-73
2024/02/26 00:31:36;;;;;;;15.63;14.82;;;4.20;99.90;;;;;;4963707;28;20673;-72
2024/02/26 00:34:03;;;;;;;15.20;14.30;;;4.30;99.90;;;;;;4972441;28;20049;-73
2024/02/26 00:36:31;;;;;;;15.43;14.52;;;4.30;99.90;;;;;;4966936;28;20125;-73
2024/02/26 00:38:57;;;;;;;15.40;14.60;;;4.40;99.90;;;;;;4961331;28;20740;-73
2024/02/26 00:41:24;;;;;;;15.73;14.77;;;4.40;99.90;;;;;;4963442;28;20045;-71
2024/02/26 00:43:51;;;;;;;16.67;15.63;;;4.40;99.90;;;;;;4960069;28;20730;-72
2024/02/26 00:46:18;;;;;;;16.02;14.98;;;4.40;99.90;;;;;;4963610;28;20057;-73
2024/02/26 00:48:44;;;;;;;16.30;15.25;;;4.40;99.90;;;;;;4960192;28;20546;-73
2024/02/26 00:51:11;;;;;;;15.93;15.05;;;4.50;99.90;;;;;;4960534;28;20050;-73
2024/02/26 00:53:38;;;;;;;15.40;14.50;;;4.50;99.90;;;;;;4976373;28;20061;-73
2024/02/26 00:56:06;;;;;;;15.75;14.95;;;4.50;99.90;;;;;;4961887;28;20550;-73
2024/02/26 00:58:33;;;;;;;16.15;15.35;;;4.60;99.90;;;;;;4964047;28;20042;-73
2024/02/26 01:00:59;;;;;;;15.88;14.77;;;4.60;99.90;;;;;;4971413;28;20057;-73
2024/02/26 01:03:26;;;;;;;15.43;14.63;;;4.70;99.90;;;;;;4967182;28;20675;-73
2024/02/26 01:05:53;;;;;;;15.88;14.75;;;4.70;99.90;;;;;;4959109;28;20117;-72
2024/02/26 01:08:24;;;;;;;15.18;14.38;;;4.70;99.90;;;;;;4963468;28;20062;-73
2024/02/26 01:10:51;;;;;;;14.95;14.25;;;4.80;99.90;;;;;;4960251;28;20236;-73
2024/02/26 01:13:18;;;;;;;15.13;14.43;;;4.80;99.90;;;;;;4961992;28;20069;-72
2024/02/26 01:15:45;;;;;;;15.60;14.60;;;4.80;99.90;;;;;;4949500;28;20069;-73
2024/02/26 01:18:12;;;;;;;15.50;14.60;;;4.80;99.90;;;;;;4960042;28;21329;-73
2024/02/26 01:20:39;;;;;;;15.52;14.63;;;4.80;99.90;;;;;;4961886;28;20233;-73
2024/02/26 01:23:06;;;;;;;15.85;15.05;;;4.80;99.90;;;;;;4965486;28;20039;-73
2024/02/26 01:25:32;;;;;;;15.85;14.95;;;4.80;99.90;;;;;;4964631;28;20064;-73
2024/02/26 01:27:59;;;;;;;15.38;14.68;;;4.80;99.90;;;;;;4947719;28;20042;-73
2024/02/26 01:30:26;;;;;;;15.60;14.80;;;4.90;99.90;;;;;;4974077;28;20054;-73
2024/02/26 01:32:53;;;;;;;15.35;14.55;;;4.90;99.90;;;;;;4959979;28;20078;-72
2024/02/26 01:35:20;;;;;;;15.52;14.73;;;4.90;99.90;;;;;;4966134;28;20070;-73
2024/02/26 01:37:47;;;;;;;15.52;14.80;;;4.90;99.90;;;;;;4959363;28;20058;-73
2024/02/26 01:40:19;;;;;;;15.50;14.68;;;5.00;99.90;;;;;;4960209;28;20053;-73
2024/02/26 01:42:46;;;;;;;15.60;14.57;;;5.00;99.90;;;;;;4966259;28;20463;-73
2024/02/26 01:45:23;;;;;;;15.30;14.30;;;5.10;99.90;;;;;;4963759;28;20153;-75
2024/02/26 01:47:51;;;;;;;15.82;14.82;;;5.20;99.90;;;;;;4956557;28;20054;-75
2024/02/26 01:50:21;;;;;;;15.60;14.80;;;5.10;99.90;;;;;;4964535;28;20057;-74
2024/02/26 01:52:50;;;;;;;15.50;14.70;;;5.20;99.90;;;;;;4962022;28;20697;-73
2024/02/26 01:55:22;;;;;;;15.48;14.77;;;5.20;99.90;;;;;;4962695;28;20051;-73
2024/02/26 01:57:51;;;;;;;16.15;15.35;;;5.20;99.90;;;;;;4976959;28;20061;-73
2024/02/26 02:00:19;;;;;;;16.27;15.30;;;5.20;99.90;;;;;;4960943;28;20414;-73
2024/02/26 02:02:48;;;;;;;16.42;15.43;;;5.20;99.90;;;;;;4961469;28;20086;-73
2024/02/26 02:05:17;;;;;;;16.02;15.18;;;5.20;99.90;;;;;;4960609;28;20074;-73
2024/02/26 02:07:44;;;;;;;16.00;15.20;;;5.20;99.90;;;;;;4964756;28;20065;-73
2024/02/26 02:10:11;;;;;;;16.27;15.27;;;5.20;99.90;;;;;;4960392;28;20046;-73
2024/02/26 02:12:39;;;;;;;16.40;15.32;;;5.10;99.90;;;;;;4959307;28;20055;-73
2024/02/26 02:15:07;;;;;;;15.90;15.00;;;5.10;99.90;;;;;;4967963;28;20058;-73
2024/02/26 02:17:34;;;;;;;15.45;14.75;;;5.10;99.90;;;;;;4954657;28;20749;-73
2024/02/26 02:20:03;;;;;;;15.25;14.55;;;5.20;99.90;;;;;;4960178;28;20418;-73
2024/02/26 02:22:32;;;;;;;15.50;14.80;;;5.20;99.90;;;;;;4972245;28;20077;-73
2024/02/26 02:24:59;;;;;;;15.25;14.55;;;5.20;99.90;;;;;;4959335;28;20066;-73
2024/02/26 02:27:28;;;;;;;15.80;15.00;;;5.20;99.90;;;;;;4962703;28;20050;-73
2024/02/26 02:29:55;;;;;;;16.05;15.15;;;5.10;99.90;;;;;;4963443;28;20137;-73
2024/02/26 02:32:24;;;;;;;15.98;15.18;;;5.20;99.90;;;;;;4965185;28;20057;-73
2024/02/26 02:34:51;;;;;;;16.10;15.30;;;5.20;99.90;;;;;;4960347;28;20046;-73
2024/02/26 02:37:18;;;;;;;15.75;14.95;;;5.20;99.90;;;;;;4957163;28;20125;-73
2024/02/26 02:39:45;;;;;;;15.82;15.10;;;5.30;99.90;;;;;;4962654;28;20044;-73
2024/02/26 02:42:13;;;;;;;16.27;15.38;;;5.20;99.90;;;;;;4957384;28;20047;-73
2024/02/26 02:44:39;;;;;;;16.20;15.40;;;5.20;99.90;;;;;;4968576;28;20050;-73
2024/02/26 02:47:06;;;;;;;15.82;15.02;;;5.20;99.90;;;;;;4969165;28;20105;-73
2024/02/26 02:49:33;;;;;;;15.85;15.05;;;5.20;99.90;;;;;;4966520;28;20049;-73
2024/02/26 02:52:01;;;;;;;15.98;15.18;;;5.30;99.90;;;;;;4962094;28;20588;-74
2024/02/26 02:54:28;;;;;;;16.48;15.68;;;5.30;99.90;;;;;;4961081;28;20793;-72
2024/02/26 02:56:55;;;;;;;17.00;16.10;;;5.20;99.90;;;;;;4965562;28;20074;-73
2024/02/26 02:59:21;;;;;;;16.83;15.90;;;5.30;99.90;;;;;;4962625;28;20073;-73
2024/02/26 03:01:49;;;;;;;16.55;15.70;;;5.20;99.90;;;;;;4973239;28;20034;-73
2024/02/26 03:04:16;;;;;;;16.70;15.65;;;5.20;99.90;;;;;;4962418;28;20064;-73
2024/02/26 03:06:42;;;;;;;16.30;15.48;;;5.20;99.90;;;;;;4953204;28;20047;-73
2024/02/26 03:09:09;;;;;;;16.27;15.38;;;5.30;99.90;;;;;;4944084;28;20787;-74
2024/02/26 03:11:36;;;;;;;16.88;15.88;;;5.30;99.90;;;;;;4944766;28;20074;-73
2024/02/26 03:14:04;;;;;;;16.65;15.75;;;5.20;99.90;;;;;;4959392;28;20055;-73
2024/02/26 03:16:31;;;;;;;16.98;16.02;;;5.20;99.90;;;;;;4946818;28;20051;-73
2024/02/26 03:18:58;;;;;;;16.95;15.85;;;5.20;99.90;;;;;;4962719;28;20533;-72
2024/02/26 03:21:27;;;;;;;16.75;15.85;;;5.20;99.90;;;;;;4942147;28;20047;-73
2024/02/26 03:23:53;;;;;;;16.33;15.52;;;5.30;99.90;;;;;;4961990;28;20415;-73
2024/02/26 03:26:21;;;;;;;16.52;15.63;;;5.20;99.90;;;;;;4940388;28;20781;-73
2024/02/26 03:28:48;;;;;;;16.70;15.65;;;5.20;99.90;;;;;;4948025;28;20061;-73
2024/02/26 03:31:15;;;;;;;17.00;16.10;;;5.20;99.90;;;;;;4929123;28;20130;-73
2024/02/26 03:33:41;;;;;;;17.30;16.20;;;5.20;99.90;;;;;;4952235;28;20065;-73
2024/02/26 03:36:08;;;;;;;16.80;15.90;;;5.30;99.90;;;;;;4942179;28;20070;-73
2024/02/26 03:38:36;;;;;;;17.40;16.30;;;5.30;99.90;;;;;;4965294;28;20164;-73
2024/02/26 03:41:03;;;;;;;17.33;16.33;;;5.30;99.90;;;;;;4941199;28;20047;-73
2024/02/26 03:43:30;;;;;;;17.33;16.27;;;5.30;99.90;;;;;;4945833;28;20054;-73
2024/02/26 03:45:57;;;;;;;17.17;16.25;;;5.30;99.90;;;;;;4951450;28;20058;-73
2024/02/26 03:48:23;;;;;;;17.17;16.23;;;5.30;99.90;;;;;;4976777;28;20050;-73
2024/02/26 03:50:50;;;;;;;17.63;16.52;;;5.30;99.90;;;;;;4967783;28;20121;-73
2024/02/26 03:53:18;;;;;;;17.10;16.15;;;5.40;99.90;;;;;;4964335;28;20553;-73
2024/02/26 03:55:44;;;;;;;16.88;15.98;;;5.40;99.90;;;;;;4961465;28;20394;-73
2024/02/26 03:58:12;;;;;;;16.90;15.90;;;5.40;99.90;;;;;;4941058;28;20651;-73
2024/02/26 04:00:39;;;;;;;17.48;16.48;;;5.40;99.90;;;;;;4953023;28;20065;-73
2024/02/26 04:03:06;;;;;;;16.95;15.85;;;5.40;99.90;;;;;;4963205;28;20046;-73
2024/02/26 04:05:33;;;;;;;16.77;15.88;;;5.50;99.90;;;;;;4966142;28;20039;-72
2024/02/26 04:07:59;;;;;;;17.80;16.75;;;5.50;99.90;;;;;;4962377;28;20065;-73
2024/02/26 04:10:26;;;;;;;17.42;16.42;;;5.40;99.90;;;;;;4966422;28;20069;-73
2024/02/26 04:12:53;;;;;;;17.60;16.50;;;5.50;99.90;;;;;;4967627;28;20548;-73
2024/02/26 04:15:20;;;;;;;17.48;16.20;;;5.50;99.90;;;;;;4963638;28;20057;-73
2024/02/26 04:17:47;;;;;;;17.60;16.60;;;5.50;99.90;;;;;;4967806;28;20703;-72
2024/02/26 04:20:15;;;;;;;16.88;15.98;;;5.50;99.90;;;;;;4963558;28;20043;-73
2024/02/26 04:22:42;;;;;;;17.25;16.30;;;5.50;99.90;;;;;;4962450;28;20077;-73
2024/02/26 04:25:10;;;;;;;18.27;17.20;;;5.60;99.90;;;;;;4971920;28;20583;-73
2024/02/26 04:27:37;;;;;;;17.67;16.67;;;5.60;99.90;;;;;;4965472;28;20129;-72
2024/02/26 04:30:05;;;;;;;17.30;16.30;;;5.60;99.90;;;;;;4960877;28;20050;-73
2024/02/26 04:32:31;;;;;;;17.98;16.88;;;5.70;99.90;;;;;;4965113;28;20050;-72
2024/02/26 04:34:58;;;;;;;18.40;17.17;;;5.70;99.90;;;;;;4964108;28;20046;-73
2024/02/26 04:37:30;;;;;;;18.55;17.45;;;5.70;99.90;;;;;;4960599;28;20053;-73
2024/02/26 04:40:01;;;;;;;18.10;17.00;;;5.80;99.90;;;;;;4960664;28;20046;-73
2024/02/26 04:42:28;;;;;;;17.92;16.85;;;5.80;99.90;;;;;;4979800;28;20038;-72
2024/02/26 04:44:55;;;;;;;18.45;17.17;;;5.80;99.90;;;;;;4977181;28;20043;-73
2024/02/26 04:47:22;;;;;;;18.42;17.27;;;5.90;99.90;;;;;;4957908;28;20042;-72
2024/02/26 04:49:50;;;;;;;18.60;17.42;;;5.90;99.90;;;;;;4978299;28;20049;-72
2024/02/26 04:52:18;;;;;;;19.00;17.65;;;6.00;99.90;;;;;;4978833;28;20060;-72
2024/02/26 04:54:45;;;;;;;18.67;17.55;;;6.00;99.90;;;;;;4978084;28;20054;-72
2024/02/26 04:57:11;;;;;;;17.92;16.92;;;6.00;99.90;;;;;;4962035;28;20359;-73
2024/02/26 04:59:40;;;;;;;18.20;17.20;;;6.00;99.90;;;;;;4973167;28;20134;-74
2024/02/26 05:02:07;;;;;;;18.67;17.58;;;6.00;99.90;;;;;;4963060;28;20039;-74
2024/02/26 05:04:34;;;;;;;18.77;17.67;;;6.00;99.90;;;;;;4966532;28;20051;-72
2024/02/26 05:07:02;;;;;;;19.30;18.10;;;6.00;99.90;;;;;;4963016;28;20069;-75
2024/02/26 05:09:29;;;;;;;19.27;17.98;;;6.00;99.90;;;;;;4963889;28;20069;-72
2024/02/26 05:11:56;;;;;;;19.20;18.10;;;6.10;99.90;;;;;;4964462;28;20039;-72
2024/02/26 05:14:23;;;;;;;19.50;18.27;;;6.00;99.90;;;;;;4966169;28;20359;-73
2024/02/26 05:16:49;;;;;;;19.08;17.98;;;6.10;99.90;;;;;;4949122;28;20050;-72
2024/02/26 05:19:16;;;;;;;19.23;17.85;;;6.10;99.90;;;;;;4961979;28;20054;-72
2024/02/26 05:21:44;;;;;;;19.52;18.33;;;6.10;99.90;;;;;;4963211;28;20038;-72
2024/02/26 05:24:11;;;;;;;18.85;17.85;;;6.10;99.90;;;;;;4961861;28;20046;-72
2024/02/26 05:26:38;;;;;;;19.50;18.30;;;6.10;99.90;;;;;;4964248;28;20553;-72
2024/02/26 05:29:04;;;;;;;19.23;18.02;;;6.00;99.90;;;;;;4964302;28;20506;-73
2024/02/26 05:31:32;;;;;;;19.67;18.58;;;6.00;99.90;;;;;;4966656;28;20129;-72
2024/02/26 05:33:59;;;;;;;19.77;18.58;;;6.00;99.90;;;;;;4960793;28;20145;-72
2024/02/26 05:36:28;;;;;;;19.70;18.40;;;6.00;99.90;;;;;;4961394;28;20826;-72
2024/02/26 05:38:55;;;;;;;19.52;18.25;;;5.90;99.90;;;;;;4945261;28;20054;-72
2024/02/26 05:41:26;;;;;;;19.13;17.83;;;5.90;99.90;;;;;;4943751;28;20130;-72
2024/02/26 05:43:53;;;;;;;19.83;18.63;;;5.90;99.90;;;;;;4946091;28;20054;-73
2024/02/26 05:46:20;;;;;;;19.27;18.17;;;5.80;99.90;;;;;;4952677;28;20042;-72
2024/02/26 05:48:51;;;;;;;19.70;18.50;;;5.70;99.90;;;;;;4961472;28;20038;-73
2024/02/26 05:51:18;;;;;;;19.60;18.30;;;5.70;99.90;;;;;;4948974;28;20431;-72
2024/02/26 05:53:46;;;;;;;19.55;18.40;;;5.70;99.90;;;;;;4946828;28;20488;-72
2024/02/26 05:56:13;;;;;;;20.15;18.73;;;5.70;99.90;;;;;;4939073;28;20062;-72
2024/02/26 05:58:40;;;;;;;20.25;18.95;;;5.80;99.90;;;;;;4945019;28;20047;-72
2024/02/26 06:01:07;;;;;;;19.60;18.40;;;5.80;99.90;;;;;;4936581;28;20647;-71
2024/02/26 06:03:34;;;;;;;19.83;18.63;;;5.80;99.90;;;;;;4951981;28;20165;-72
2024/02/26 06:06:01;;;;;;;20.15;18.77;;;5.80;99.90;;;;;;4939876;28;20133;-72
2024/02/26 06:08:28;;;;;;;20.15;18.85;;;5.70;99.90;;;;;;4938768;28;20061;-72
2024/02/26 06:10:55;;;;;;;20.08;18.73;;;5.80;99.90;;;;;;4940542;28;20095;-72
2024/02/26 06:13:22;;;;;;;19.75;18.45;;;5.80;99.90;;;;;;4955222;28;20046;-72
2024/02/26 06:15:49;;;;;;;19.98;18.77;;;5.70;99.90;;;;;;4941124;28;20466;-72
2024/02/26 06:18:16;;;;;;;19.63;18.42;;;5.70;99.90;;;;;;4943011;28;20066;-72
2024/02/26 06:20:43;;;;;;;20.05;18.65;;;5.60;99.90;;;;;;4945944;28;20050;-71
2024/02/26 06:23:10;;;;;;;20.15;18.67;;;5.60;99.90;;;;;;4959496;28;20046;-72
2024/02/26 06:25:36;;;;;;;22.50;21.10;;;5.60;99.90;;;;;;4961225;28;20138;-72
2024/02/26 06:28:04;;;;;;;19.55;18.15;;;5.60;99.90;;;;;;4963538;28;20120;-72
2024/02/26 06:30:31;;;;;;;19.83;18.63;;;5.50;99.90;;;;;;4958520;28;20130;-72
2024/02/26 06:32:58;;;;;;;19.63;18.42;;;5.40;99.90;;;;;;4962818;28;20503;-72
2024/02/26 06:35:25;;;;;;;19.35;18.15;;;5.40;99.90;;;;;;4973976;28;20035;-72
2024/02/26 06:37:52;;;;;;;20.38;19.08;;;5.50;99.90;;;;;;4941104;28;20514;-72
2024/02/26 06:40:19;;;;;;;19.83;18.52;;;5.40;99.90;;;;;;4940679;28;20058;-74
2024/02/26 06:42:46;;;;;;;19.38;18.02;;;5.40;99.90;;;;;;4942930;28;20054;-75
2024/02/26 06:45:15;;;;;;;18.88;17.67;;;5.40;99.90;;;;;;4939472;28;20106;-72
2024/02/26 06:47:42;;;;;;;21.45;20.20;;;5.40;99.90;;;;;;4946582;28;20059;-72
2024/02/26 06:50:12;;;;;;;26.95;25.55;;;5.30;99.90;;;;;;4945945;28;20055;-72
2024/02/26 06:52:38;;;;;;;25.88;24.48;;;5.30;99.90;;;;;;4940675;28;20057;-75
2024/02/26 06:55:08;;;;;;;27.08;25.58;;;5.20;99.90;;;;;;4941148;28;20054;-75
2024/02/26 06:57:35;;;;;;;27.80;26.05;;;5.20;99.90;;;;;;4960476;28;20089;-75
2024/02/26 07:00:04;;;;;;;26.45;24.95;;;5.30;99.90;;;;;;4960018;28;20039;-72
2024/02/26 07:02:31;;;;;;;25.88;24.33;;;5.30;99.90;;;;;;4958516;28;20061;-72
2024/02/26 07:04:58;;;;;;;26.52;24.90;;;5.30;99.90;;;;;;4964465;28;20038;-72
2024/02/26 07:07:25;;;;;;;25.45;23.98;;;5.30;99.90;;;;;;4941440;28;20051;-73
2024/02/26 07:09:52;;;;;;;25.60;24.15;;;5.30;99.90;;;;;;4940229;28;20055;-73
2024/02/26 07:12:21;;;;;;;24.75;23.35;;;5.40;99.90;;;;;;4962450;28;20051;-72
2024/02/26 07:14:49;;;;;;;24.67;23.13;;;5.40;99.90;;;;;;4964148;28;20050;-72
2024/02/26 07:17:16;;;;;;;24.73;23.27;;;5.50;99.90;;;;;;4943724;28;21526;-73
2024/02/26 07:19:43;;;;;;;24.17;22.75;;;5.30;99.90;;;;;;4957199;28;20047;-73
2024/02/26 07:22:10;;;;;;;23.15;21.85;;;5.40;99.90;;;;;;4951391;28;20531;-73
2024/02/26 07:24:36;;;;;;;24.88;23.33;;;5.40;99.90;;;;;;4951544;28;20062;-73
2024/02/26 07:27:03;;;;;;;23.73;22.17;;;5.30;99.90;;;;;;4954420;28;20034;-73
2024/02/26 07:29:30;;;;;;;23.50;21.80;;;5.40;99.90;;;;;;4950517;28;20058;-72
2024/02/26 07:31:58;;;;;;;24.58;23.08;;;5.40;99.90;;;;;;4954589;28;20123;-72
2024/02/26 07:34:28;;;;;;;25.35;23.85;;;5.40;99.90;;;;;;4953602;28;20141;-73
2024/02/26 07:36:56;;;;;;;24.42;22.83;;;5.40;99.90;;;;;;4954851;28;20038;-73
2024/02/26 07:39:23;;;;;;;25.63;24.02;;;5.40;99.90;;;;;;4950187;28;20047;-73
2024/02/26 07:41:52;;;;;;;24.67;23.15;;;5.40;99.90;;;;;;4928709;28;20105;-72
2024/02/26 07:44:20;;;;;;;24.05;22.73;;;5.40;99.90;;;;;;4944735;28;20138;-72
2024/02/26 07:46:47;;;;;;;25.02;23.42;;;5.50;99.90;;;;;;4944203;28;20050;-73
2024/02/26 07:49:14;;;;;;;25.60;24.00;;;5.70;99.90;;;;;;4939957;28;20051;-72
2024/02/26 07:51:41;;;;;;;27.70;25.90;;;5.70;99.90;;;;;;4944593;28;20062;-73
2024/02/26 07:54:08;;;;;;;26.83;24.75;;;5.80;99.90;;;;;;4943863;28;20668;-72
2024/02/26 07:56:35;;;;;;;26.92;25.13;;;5.90;99.90;;;;;;4949076;28;20414;-73
2024/02/26 07:59:02;;;;;;;31.63;29.05;;;6.00;99.90;;;;;;4963692;28;20221;-72
2024/02/26 08:01:29;;;;;;;26.92;25.33;;;6.00;99.90;;;;;;4972347;28;20043;-72
2024/02/26 08:03:56;;;;;;;26.90;25.30;;;5.90;99.90;;;;;;4964141;28;20156;-73
2024/02/26 08:06:24;;;;;;;31.30;29.08;;;6.10;99.90;;;;;;4959892;28;20678;-73
2024/02/26 08:08:52;;;;;;;30.85;28.85;;;6.10;99.90;;;;;;4963940;28;20322;-73
2024/02/26 08:11:18;;;;;;;32.03;29.80;;;6.10;99.90;;;;;;4959383;28;21388;-71
2024/02/26 08:13:45;;;;;;;31.85;29.77;;;6.20;99.90;;;;;;4959472;28;20049;-72
2024/02/26 08:16:12;;;;;;;34.72;32.22;;;6.30;99.90;;;;;;4960673;28;20058;-72
2024/02/26 08:18:39;;;;;;;33.40;31.50;;;6.30;99.90;;;;;;4961957;28;20046;-71
2024/02/26 08:21:08;;;;;;;26.90;25.30;;;6.30;99.90;;;;;;4964481;28;20053;-72
2024/02/26 08:23:35;;;;;;;26.50;24.70;;;6.30;99.90;;;;;;4963544;28;20052;-72
2024/02/26 08:26:04;;;;;;;25.85;24.27;;;6.30;99.90;;;;;;4958274;28;20046;-72
2024/02/26 08:28:30;;;;;;;27.50;25.73;;;6.40;99.90;;;;;;4962949;28;20061;-72
2024/02/26 08:30:58;;;;;;;28.05;26.35;;;6.30;99.90;;;;;;4963578;28;20716;-72
2024/02/26 08:33:25;;;;;;;26.10;24.40;;;6.30;99.90;;;;;;4972740;28;20054;-71
2024/02/26 08:35:52;;;;;;;27.00;25.30;;;6.40;99.90;;;;;;4963040;28;20590;-73
2024/02/26 08:38:19;;;;;;;29.05;27.05;;;6.40;99.90;;;;;;4957690;28;20050;-72
2024/02/26 08:40:46;;;;;;;29.90;27.73;;;6.60;99.90;;;;;;4963752;28;20050;-71
2024/02/26 08:43:12;;;;;;;30.63;28.38;;;6.80;99.90;;;;;;4961405;28;20045;-71
2024/02/26 08:45:39;;;;;;;28.65;26.65;;;6.80;99.90;;;;;;4966161;28;20046;-72
2024/02/26 08:48:07;;;;;;;27.08;25.27;;;6.80;99.90;;;;;;4960677;28;20046;-72
2024/02/26 08:50:34;;;;;;;26.80;25.02;;;6.80;99.90;;;;;;4966994;28;20058;-72
2024/02/26 08:53:03;;;;;;;27.50;25.70;;;6.80;99.90;;;;;;4962111;28;22137;-72
2024/02/26 08:55:33;;;;;;;29.33;26.90;;;6.80;99.90;;;;;;4963753;28;20054;-72
2024/02/26 08:58:01;;;;;;;31.77;29.48;;;6.90;99.90;;;;;;4963876;28;20058;-73
2024/02/26 09:00:28;;;;;;;30.58;28.27;;;7.00;99.90;;;;;;4962934;28;20656;-72
2024/02/26 09:02:55;;;;;;;28.95;26.65;;;7.20;99.90;;;;;;4942134;28;20050;-72
2024/02/26 09:05:22;;;;;;;27.70;25.92;;;7.20;99.90;;;;;;4941723;28;20556;-72
2024/02/26 09:07:51;;;;;;;28.27;26.38;;;7.30;99.90;;;;;;4945389;28;20046;-72
2024/02/26 09:10:18;;;;;;;31.42;29.13;;;7.40;99.90;;;;;;4942771;28;20609;-72
2024/02/26 09:12:45;;;;;;;28.77;26.77;;;7.60;99.90;;;;;;4952352;28;20057;-72
2024/02/26 09:15:12;;;;;;;28.42;26.63;;;7.90;99.90;;;;;;4950865;28;20038;-72
2024/02/26 09:17:39;;;;;;;29.15;27.17;;;8.10;99.90;;;;;;4967408;28;20050;-72
2024/02/26 09:20:09;;;;;;;28.85;26.98;;;8.00;99.90;;;;;;4976761;28;20050;-72
2024/02/26 09:22:37;;;;;;;28.92;27.00;;;8.10;99.90;;;;;;4950351;28;20055;-72
2024/02/26 09:25:06;;;;;;;29.02;27.33;;;8.20;99.90;;;;;;4949376;28;20546;-72
2024/02/26 09:27:33;;;;;;;28.80;26.90;;;8.00;99.90;;;;;;4950445;28;20047;-73
2024/02/26 09:30:00;;;;;;;30.13;28.02;;;8.00;99.90;;;;;;4949523;28;20105;-72
2024/02/26 09:32:27;;;;;;;29.30;27.42;;;8.20;99.90;;;;;;4948989;28;20404;-72
2024/02/26 09:34:54;;;;;;;29.08;27.05;;;8.30;99.90;;;;;;4950253;28;20059;-72
2024/02/26 09:37:20;;;;;;;28.55;26.77;;;8.40;99.90;;;;;;4944704;28;20134;-71
2024/02/26 09:39:48;;;;;;;29.30;27.40;;;8.30;99.90;;;;;;4941014;28;20050;-72
2024/02/26 09:42:19;;;;;;;27.42;25.80;;;8.20;99.90;;;;;;4951077;28;20047;-72
2024/02/26 09:44:50;;;;;;;28.58;26.67;;;8.30;99.90;;;;;;4953248;28;20047;-72
2024/02/26 09:47:19;;;;;;;29.55;27.75;;;8.50;99.90;;;;;;4957188;28;20097;-72
2024/02/26 09:49:48;;;;;;;28.35;26.65;;;8.60;99.90;;;;;;4960327;28;20038;-71
2024/02/26 09:52:16;;;;;;;29.23;27.23;;;8.60;99.90;;;;;;4946703;28;20053;-72
2024/02/26 09:54:48;;;;;;;28.60;26.80;;;8.60;99.90;;;;;;4959771;28;20517;-71
2024/02/26 09:57:17;;;;;;;27.40;25.80;;;8.50;99.90;;;;;;4961748;28;20051;-70
2024/02/26 09:59:46;;;;;;;28.52;26.67;;;8.50;99.90;;;;;;4962413;28;20051;-72
2024/02/26 10:02:14;;;;;;;28.48;26.77;;;8.60;99.90;;;;;;4961925;28;20043;-71
2024/02/26 10:04:42;;;;;;;28.25;26.65;;;8.70;99.90;;;;;;4959420;28;20110;-72
2024/02/26 10:07:15;;;;;;;29.88;28.08;;;8.80;99.90;;;;;;4959342;28;20042;-71
2024/02/26 10:09:42;;;;;;;28.65;26.80;;;8.60;99.90;;;;;;4961331;28;20130;-72
2024/02/26 10:12:11;;;;;;;31.30;29.40;;;8.70;99.90;;;;;;4958143;28;20952;-72
2024/02/26 10:14:38;;;;;;;30.65;28.55;;;8.90;99.90;;;;;;4957312;28;20046;-72
2024/02/26 10:17:10;;;;;;;28.48;26.58;;;8.80;99.90;;;;;;4957617;28;20051;-72
2024/02/26 10:19:37;;;;;;;31.00;28.95;;;8.90;99.90;;;;;;4962030;28;20097;-72
2024/02/26 10:22:06;;;;;;;30.95;28.95;;;9.00;99.90;;;;;;4962069;28;20043;-72
2024/02/26 10:24:34;;;;;;;31.27;29.27;;;9.10;99.90;;;;;;4955613;28;20420;-72
2024/02/26 10:27:02;;;;;;;29.65;27.65;;;9.20;99.90;;;;;;4961193;28;20102;-72
2024/02/26 10:29:29;;;;;;;34.15;31.95;;;9.10;99.90;;;;;;4971044;28;20149;-72
2024/02/26 10:31:56;;;;;;;32.78;30.73;;;9.00;99.90;;;;;;4959080;28;20065;-72
2024/02/26 10:34:23;;;;;;;34.15;32.03;;;9.00;99.90;;;;;;4958398;28;20046;-72
2024/02/26 10:36:50;;;;;;;35.38;33.00;;;9.00;99.90;;;;;;4972800;28;20055;-72
2024/02/26 10:39:20;;;;;;;32.65;30.52;;;9.00;99.90;;;;;;4958703;28;20046;-72
2024/02/26 10:41:49;;;;;;;33.22;31.08;;;8.90;99.90;;;;;;4959687;28;20487;-71
2024/02/26 10:44:16;;;;;;;33.75;31.35;;;8.80;99.90;;;;;;4940029;28;20090;-71
2024/02/26 10:46:49;;;;;;;33.08;30.75;;;8.90;99.90;;;;;;4951366;28;20053;-72
2024/02/26 10:49:19;;;;;;;32.53;30.33;;;9.00;99.90;;;;;;4939062;28;21476;-72
2024/02/26 10:51:58;;;;;;;32.40;30.35;;;9.10;99.90;;;;;;4964049;28;20043;-71
2024/02/26 10:54:31;;;;;;;31.52;29.52;;;9.10;99.90;;;;;;4960321;28;20199;-72
2024/02/26 10:56:59;;;;;;;32.70;30.60;;;9.20;99.90;;;;;;4940895;28;20514;-72
2024/02/26 10:59:27;;;;;;;31.73;29.67;;;9.10;99.90;;;;;;4940365;28;20043;-72
2024/02/26 11:01:55;;;;;;;32.60;30.38;;;9.30;99.90;;;;;;4941762;28;20519;-72
2024/02/26 11:04:22;;;;;;;31.30;29.20;;;9.30;99.90;;;;;;4943680;28;20511;-72
2024/02/26 11:06:50;;;;;;;31.38;29.38;;;9.20;99.90;;;;;;4953214;28;20057;-72
2024/02/26 11:09:19;;;;;;;30.30;28.20;;;9.10;99.90;;;;;;4948152;28;20050;-72
2024/02/26 11:11:48;;;;;;;32.20;29.92;;;9.20;99.90;;;;;;4945814;28;20106;-72
2024/02/26 11:14:16;;;;;;;31.77;29.77;;;9.40;99.90;;;;;;4941409;28;20038;-72
2024/02/26 11:16:44;;;;;;;32.92;30.92;;;9.50;99.90;;;;;;4945425;28;20046;-70
2024/02/26 11:19:13;;;;;;;34.92;32.40;;;9.30;99.90;;;;;;4945459;28;20081;-72
2024/02/26 11:21:41;;;;;;;32.03;30.13;;;9.30;99.90;;;;;;4947660;28;20078;-72
2024/02/26 11:24:15;;;;;;;36.30;33.85;;;9.50;99.90;;;;;;4941901;28;20055;-72
2024/02/26 11:27:09;;;;;;;33.65;31.38;;;9.60;99.90;;;;;;4941657;28;20047;-72
2024/02/26 11:29:51;;;;;;;33.30;31.10;;;9.50;99.90;;;;;;4944027;28;20541;-72
2024/02/26 11:32:19;;;;;;;31.90;29.70;;;9.40;99.90;;;;;;4956907;28;22050;-71
2024/02/26 11:34:46;;;;;;;30.55;28.65;;;9.40;99.90;;;;;;4966257;28;20081;-72
2024/02/26 11:37:17;;;;;;;32.10;29.88;;;9.50;99.90;;;;;;4963371;28;20046;-71
2024/02/26 11:39:46;;;;;;;31.85;29.75;;;9.60;99.90;;;;;;4965046;28;20057;-72
2024/02/26 11:42:16;;;;;;;31.80;29.63;;;9.40;99.90;;;;;;4974922;28;20070;-72
2024/02/26 11:44:43;;;;;;;31.45;29.17;;;9.30;99.90;;;;;;4959167;28;20043;-72
2024/02/26 11:47:17;;;;;;;30.85;28.83;;;9.30;99.90;;;;;;4961003;28;20061;-72
2024/02/26 11:49:44;;;;;;;32.33;29.98;;;9.50;99.90;;;;;;4964446;28;20054;-72
2024/02/26 11:52:13;;;;;;;35.33;32.58;;;9.50;99.90;;;;;;4949608;28;20130;-72
2024/02/26 11:54:46;;;;;;;32.88;30.63;;;9.50;99.90;;;;;;4960702;28;20062;-72
2024/02/26 11:57:29;;;;;;;34.22;31.48;;;9.30;99.90;;;;;;4958151;28;20062;-71
2024/02/26 12:00:12;;;;;;;34.60;32.05;;;9.10;99.90;;;;;;4962422;28;20086;-71
2024/02/26 12:02:47;;;;;;;35.10;32.45;;;9.10;99.90;;;;;;4962757;28;20082;-71
2024/02/26 12:05:15;;;;;;;32.97;30.67;;;9.30;99.90;;;;;;4963045;28;20074;-73
2024/02/26 12:07:50;;;;;;;32.80;30.20;;;9.30;99.90;;;;;;4976865;28;20050;-72
2024/02/26 12:10:26;;;;;;;32.15;29.77;;;9.10;99.90;;;;;;4962161;28;20700;-71
2024/02/26 12:13:01;;;;;;;32.28;29.75;;;9.00;99.90;;;;;;4964792;28;20062;-71
2024/02/26 12:15:33;;;;;;;35.47;32.67;;;9.20;99.90;;;;;;4968821;28;20055;-70
2024/02/26 12:18:02;;;;;;;39.67;36.67;;;9.10;99.90;;;;;;4972942;28;20690;-70
2024/02/26 12:20:29;;;;;;;38.67;35.83;;;9.10;99.90;;;;;;4966898;28;20121;-81
2024/02/26 12:22:56;;;;;;;38.38;35.60;;;9.10;99.90;;;;;;4966987;28;20162;-79
2024/02/26 12:25:26;;;;;;;38.90;36.15;;;9.10;99.90;;;;;;4967884;28;20055;-78
2024/02/26 12:27:54;;;;;;;40.33;37.42;;;9.00;99.90;;;;;;4974164;28;20669;-81
2024/02/26 12:30:22;;;;;;;40.53;37.65;;;8.90;99.90;;;;;;4973857;28;20070;-78
2024/02/26 12:32:50;;;;;;;38.22;35.33;;;9.00;99.90;;;;;;4982107;28;20058;-80
2024/02/26 12:35:18;;;;;;;40.63;37.92;;;8.90;99.90;;;;;;4964017;28;21960;-80
2024/02/26 12:37:46;;;;;;;40.50;37.45;;;8.80;99.90;;;;;;4964359;28;20053;-81
2024/02/26 12:40:13;;;;;;;42.65;39.30;;;8.80;99.90;;;;;;4981966;28;20043;-80